createdAt,value
2023-04-03T00:02:32.903Z,97.50
2023-04-03T00:05:19.070Z,97.10
2023-04-03T00:08:08.614Z,96.90
2023-04-03T00:10:54.629Z,97.00
2023-04-03T00:13:41.089Z,97.20
2023-04-03T00:16:27.230Z,97.30
2023-04-03T00:19:13.634Z,97.10
2023-04-03T00:21:59.826Z,97.20
2023-04-03T00:24:45.829Z,97.20
2023-04-03T00:27:31.879Z,97.50
2023-04-03T00:30:20.021Z,97.00
2023-04-03T00:33:06.481Z,97.30
2023-04-03T00:35:53.177Z,97.50
2023-04-03T00:38:40.034Z,97.50
2023-04-03T00:41:26.519Z,97.50
2023-04-03T00:44:23.815Z,97.60
2023-04-03T00:47:15.485Z,97.90
2023-04-03T00:50:03.338Z,97.90
2023-04-03T00:52:50.150Z,97.80
2023-04-03T00:55:37.998Z,97.70
2023-04-03T00:58:37.673Z,97.80
2023-04-03T01:01:26.777Z,97.80
2023-04-03T01:04:36.768Z,97.80
2023-04-03T01:07:27.544Z,98.10
2023-04-03T01:10:16.922Z,97.80
2023-04-03T01:13:18.020Z,97.80
2023-04-03T01:16:07.102Z,98.00
2023-04-03T01:18:53.244Z,98.40
2023-04-03T01:21:57.589Z,98.30
2023-04-03T01:24:43.599Z,98.30
2023-04-03T01:27:30.508Z,98.40
2023-04-03T01:30:19.685Z,98.60
2023-04-03T01:33:05.925Z,98.40
2023-04-03T01:35:52.821Z,98.40
2023-04-03T01:38:38.996Z,98.40
2023-04-03T01:41:25.318Z,98.70
2023-04-03T01:44:14.975Z,98.60
2023-04-03T01:47:04.437Z,98.40
2023-04-03T01:49:50.808Z,98.60
2023-04-03T01:52:36.760Z,98.50
2023-04-03T01:55:23.154Z,98.50
2023-04-03T01:58:09.572Z,98.70
2023-04-03T02:00:55.951Z,98.60
2023-04-03T02:03:42.194Z,98.20
2023-04-03T02:06:28.052Z,98.20
2023-04-03T02:09:14.345Z,98.40
2023-04-03T02:12:00.647Z,98.20
2023-04-03T02:14:46.878Z,98.00
2023-04-03T02:17:32.942Z,98.00
2023-04-03T02:20:19.179Z,97.70
2023-04-03T02:23:06.460Z,97.60
2023-04-03T02:25:52.428Z,97.70
2023-04-03T02:28:38.897Z,97.40
2023-04-03T02:31:25.403Z,97.20
2023-04-03T02:34:12.578Z,97.40
2023-04-03T02:36:58.511Z,97.40
2023-04-03T02:39:44.970Z,97.20
2023-04-03T02:42:31.097Z,97.20
2023-04-03T02:45:17.276Z,96.90
2023-04-03T02:48:03.435Z,96.90
2023-04-03T02:50:49.966Z,96.80
2023-04-03T02:53:35.753Z,96.50
2023-04-03T02:56:28.744Z,96.70
2023-04-03T02:59:15.387Z,96.60
2023-04-03T03:02:02.443Z,96.50
2023-04-03T03:04:49.583Z,96.30
2023-04-03T03:07:35.930Z,96.50
2023-04-03T03:10:21.854Z,96.30
2023-04-03T03:13:07.662Z,96.00
2023-04-03T03:15:53.717Z,95.90
2023-04-03T03:18:40.411Z,96.10
2023-04-03T03:21:27.120Z,96.10
2023-04-03T03:24:13.141Z,95.90
2023-04-03T03:26:59.023Z,96.10
2023-04-03T03:29:44.905Z,96.10
2023-04-03T03:32:32.544Z,96.00
2023-04-03T03:35:18.712Z,95.90
2023-04-03T03:38:04.684Z,95.90
2023-04-03T03:40:52.976Z,95.90
2023-04-03T03:43:40.929Z,95.90
2023-04-03T03:46:28.211Z,96.10
2023-04-03T03:49:14.416Z,96.10
2023-04-03T03:52:00.394Z,96.20
2023-04-03T03:54:46.822Z,95.90
2023-04-03T03:57:32.848Z,96.10
2023-04-03T04:00:19.544Z,96.00
2023-04-03T04:03:12.476Z,96.00
2023-04-03T04:05:59.415Z,96.00
2023-04-03T04:08:45.539Z,95.80
2023-04-03T04:11:34.320Z,95.60
2023-04-03T04:14:21.894Z,95.30
2023-04-03T04:17:09.128Z,95.60
2023-04-03T04:19:57.140Z,95.80
2023-04-03T04:22:44.113Z,95.70
2023-04-03T04:25:31.039Z,95.90
2023-04-03T04:28:17.989Z,95.90
2023-04-03T04:31:04.911Z,95.70
2023-04-03T04:33:51.561Z,95.80
2023-04-03T04:36:38.280Z,95.70
2023-04-03T04:39:24.718Z,95.60
2023-04-03T04:42:15.030Z,95.90
2023-04-03T04:45:03.876Z,95.80
2023-04-03T04:47:53.306Z,95.50
2023-04-03T04:50:40.499Z,95.50
2023-04-03T04:53:27.143Z,95.70
2023-04-03T04:56:13.468Z,96.30
2023-04-03T04:59:00.162Z,95.80
2023-04-03T05:01:47.363Z,95.80
2023-04-03T05:04:36.365Z,96.10
2023-04-03T05:07:28.191Z,95.80
2023-04-03T05:10:15.395Z,96.00
2023-04-03T05:13:01.562Z,95.90
2023-04-03T05:15:48.362Z,96.10
2023-04-03T05:18:34.942Z,95.70
2023-04-03T05:21:27.122Z,96.20
2023-04-03T05:24:14.959Z,95.90
2023-04-03T05:27:03.394Z,96.10
2023-04-03T05:29:53.599Z,95.70
2023-04-03T05:32:41.922Z,95.40
2023-04-03T05:35:42.577Z,95.50
2023-04-03T05:38:32.408Z,95.60
2023-04-03T05:41:19.790Z,95.50
2023-04-03T05:44:06.726Z,95.30
2023-04-03T05:46:53.250Z,95.40
2023-04-03T05:49:41.797Z,95.30
2023-04-03T05:52:32.419Z,95.10
2023-04-03T05:55:18.871Z,95.40
2023-04-03T05:58:05.458Z,95.20
2023-04-03T06:00:51.222Z,95.20
2023-04-03T06:03:39.531Z,95.50
2023-04-03T06:06:43.183Z,95.30
2023-04-03T06:09:30.720Z,95.00
2023-04-03T06:12:17.168Z,95.00
2023-04-03T06:15:04.607Z,94.70
2023-04-03T06:17:51.046Z,94.80
2023-04-03T06:20:37.407Z,95.10
2023-04-03T06:23:24.549Z,94.70
2023-04-03T06:26:11.528Z,94.20
2023-04-03T06:28:57.736Z,94.30
2023-04-03T06:31:44.007Z,94.20
2023-04-03T06:34:30.402Z,94.10
2023-04-03T06:37:21.530Z,94.30
2023-04-03T06:40:08.672Z,94.10
2023-04-03T06:42:55.459Z,94.30
2023-04-03T06:45:42.001Z,94.60
2023-04-03T06:48:28.206Z,93.40
2023-04-03T06:51:24.973Z,93.20
2023-04-03T06:54:11.279Z,93.70
2023-04-03T06:56:57.773Z,93.50
2023-04-03T06:59:44.057Z,93.40
2023-04-03T07:02:30.066Z,93.30
2023-04-03T07:05:16.156Z,93.30
2023-04-03T07:08:02.621Z,93.80
2023-04-03T07:10:48.635Z,93.10
2023-04-03T07:13:34.889Z,92.90
2023-04-03T07:16:21.401Z,92.90
2023-04-03T07:19:09.927Z,92.60
2023-04-03T07:21:56.210Z,92.80
2023-04-03T07:24:42.271Z,92.10
2023-04-03T07:27:28.383Z,92.10
2023-04-03T07:30:15.136Z,91.50
2023-04-03T07:33:01.844Z,91.70
2023-04-03T07:35:48.068Z,92.00
2023-04-03T07:38:36.537Z,91.90
2023-04-03T07:41:23.935Z,91.70
2023-04-03T07:44:10.880Z,92.00
2023-04-03T07:46:57.070Z,91.80
2023-04-03T07:49:43.218Z,91.60
2023-04-03T07:52:29.138Z,91.20
2023-04-03T07:55:16.486Z,91.20
2023-04-03T07:58:02.468Z,91.60
2023-04-03T08:00:49.057Z,91.60
2023-04-03T08:03:35.749Z,90.70
2023-04-03T08:06:33.011Z,90.70
2023-04-03T08:09:24.150Z,91.00
2023-04-03T08:12:12.472Z,90.40
2023-04-03T08:15:00.423Z,90.80
2023-04-03T08:17:46.715Z,90.40
2023-04-03T08:20:33.078Z,90.80
2023-04-03T08:23:20.316Z,90.00
2023-04-03T08:26:11.601Z,90.10
2023-04-03T08:28:57.771Z,90.70
2023-04-03T08:31:43.891Z,91.00
2023-04-03T08:34:30.015Z,90.70
2023-04-03T08:37:17.290Z,91.00
2023-04-03T08:40:05.462Z,90.90
2023-04-03T08:42:57.543Z,90.70
2023-04-03T08:45:51.854Z,90.80
2023-04-03T08:48:42.251Z,90.50
2023-04-03T08:51:30.425Z,88.90
2023-04-03T08:54:35.307Z,90.60
2023-04-03T08:57:32.701Z,89.70
2023-04-03T09:00:25.564Z,89.70
2023-04-03T09:03:15.903Z,89.40
2023-04-03T09:06:07.032Z,90.00
2023-04-03T09:08:59.448Z,89.90
2023-04-03T09:11:59.238Z,87.10
2023-04-03T09:15:09.355Z,88.00
2023-04-03T09:18:06.811Z,88.60
2023-04-03T09:21:11.581Z,87.10
2023-04-03T09:24:02.346Z,87.40
2023-04-03T09:27:00.829Z,85.80
2023-04-03T09:29:47.760Z,85.30
2023-04-03T09:32:37.575Z,85.90
2023-04-03T09:35:36.317Z,85.00
2023-04-03T09:38:34.934Z,82.10
2023-04-03T09:41:21.051Z,82.20
2023-04-03T09:44:22.819Z,85.40
2023-04-03T09:47:31.464Z,87.20
2023-04-03T09:50:24.379Z,84.90
2023-04-03T09:53:27.896Z,85.70
2023-04-03T09:56:16.996Z,82.30
2023-04-03T09:59:06.273Z,83.10
2023-04-03T10:02:19.257Z,81.50
2023-04-03T10:05:36.273Z,83.40
2023-04-03T10:08:25.013Z,82.60
2023-04-03T10:11:19.712Z,83.90
2023-04-03T10:14:07.907Z,83.10
2023-04-03T10:17:12.946Z,83.40
2023-04-03T10:20:26.132Z,83.40
2023-04-03T10:23:30.581Z,84.10
2023-04-03T10:26:42.072Z,83.90
2023-04-03T10:29:41.036Z,82.30
2023-04-03T10:32:42.303Z,82.60
2023-04-03T10:35:45.101Z,84.10
2023-04-03T10:38:57.312Z,84.10
2023-04-03T10:42:18.897Z,84.40
2023-04-03T10:45:19.906Z,82.10
2023-04-03T10:48:24.407Z,81.20
2023-04-03T10:51:22.278Z,81.00
2023-04-03T10:54:17.683Z,82.10
2023-04-03T10:57:12.398Z,78.70
2023-04-03T11:00:19.489Z,78.30
2023-04-03T11:03:13.946Z,77.20
2023-04-03T11:06:03.466Z,77.10
2023-04-03T11:08:58.381Z,78.30
2023-04-03T11:11:45.485Z,78.40
2023-04-03T11:14:37.482Z,78.90
2023-04-03T11:17:34.098Z,79.10
2023-04-03T11:20:33.859Z,77.90
2023-04-03T11:23:32.689Z,78.20
2023-04-03T11:26:30.324Z,77.70
2023-04-03T11:29:34.370Z,74.60
2023-04-03T11:32:38.478Z,75.70
2023-04-03T11:35:26.398Z,75.70
2023-04-03T11:38:23.014Z,72.00
2023-04-03T11:41:10.314Z,70.40
2023-04-03T11:43:59.230Z,72.10
2023-04-03T11:47:02.060Z,70.70
2023-04-03T11:50:01.122Z,69.60
2023-04-03T11:52:51.022Z,68.30
2023-04-03T11:55:55.630Z,66.90
2023-04-03T11:59:01.730Z,65.60
2023-04-03T12:01:55.221Z,65.60
2023-04-03T12:05:20.234Z,64.10
2023-04-03T12:08:25.589Z,62.80
2023-04-03T12:11:14.547Z,62.90
2023-04-03T12:14:01.300Z,63.20
2023-04-03T12:16:48.579Z,62.30
2023-04-03T12:19:42.598Z,60.40
2023-04-03T12:22:29.088Z,61.00
2023-04-03T12:25:59.977Z,60.10
2023-04-03T12:28:49.882Z,61.80
2023-04-03T12:31:46.844Z,61.30
2023-04-03T12:34:35.777Z,56.60
2023-04-03T12:37:21.933Z,58.00
2023-04-03T12:40:29.683Z,55.70
2023-04-03T12:43:34.401Z,58.80
2023-04-03T12:46:23.816Z,57.50
2023-04-03T12:49:19.486Z,59.40
2023-04-03T12:52:30.480Z,60.90
2023-04-03T12:55:21.799Z,58.90
2023-04-03T12:58:17.402Z,58.70
2023-04-03T13:01:15.520Z,59.50
2023-04-03T13:04:02.309Z,59.30
2023-04-03T13:06:48.548Z,59.80
2023-04-03T13:09:35.124Z,59.70
2023-04-03T13:12:21.653Z,59.40
2023-04-03T13:15:19.970Z,59.70
2023-04-03T13:18:06.447Z,60.30
2023-04-03T13:20:53.971Z,60.20
2023-04-03T13:23:43.706Z,61.40
2023-04-03T13:26:32.710Z,61.20
2023-04-03T13:29:33.045Z,61.80
2023-04-03T13:32:23.803Z,60.80
2023-04-03T13:35:33.116Z,61.70
2023-04-03T13:38:19.345Z,61.80
2023-04-03T13:41:25.877Z,60.70
2023-04-03T13:44:24.226Z,61.40
2023-04-03T13:47:13.469Z,61.50
2023-04-03T13:50:04.745Z,62.00
2023-04-03T13:52:55.326Z,61.70
2023-04-03T13:56:07.403Z,61.10
2023-04-03T13:59:26.106Z,59.80
2023-04-03T14:02:23.857Z,59.80
2023-04-03T14:05:09.856Z,59.70
2023-04-03T14:07:56.386Z,57.80
2023-04-03T14:10:43.665Z,58.10
2023-04-03T14:13:32.454Z,59.20
2023-04-03T14:16:24.609Z,56.40
2023-04-03T14:19:37.474Z,55.10
2023-04-03T14:22:30.126Z,56.70
2023-04-03T14:25:17.236Z,51.30
2023-04-03T14:28:15.936Z,50.60
2023-04-03T14:31:01.980Z,48.50
2023-04-03T14:33:47.981Z,48.70
2023-04-03T14:36:34.860Z,49.60
2023-04-03T14:39:21.168Z,50.50
2023-04-03T14:42:07.553Z,50.00
2023-04-03T14:44:54.286Z,49.40
2023-04-03T14:47:50.651Z,48.40
2023-04-03T14:50:36.912Z,49.50
2023-04-03T14:53:37.768Z,49.20
2023-04-03T14:56:28.903Z,49.70
2023-04-03T14:59:16.390Z,50.10
2023-04-03T15:02:02.438Z,50.50
2023-04-03T15:04:50.745Z,50.40
2023-04-03T15:07:42.874Z,51.00
2023-04-03T15:10:31.152Z,50.80
2023-04-03T15:13:17.386Z,49.80
2023-04-03T15:16:04.540Z,50.80
2023-04-03T15:18:50.458Z,50.60
2023-04-03T15:21:36.955Z,49.10
2023-04-03T15:24:23.038Z,50.40
2023-04-03T15:27:11.791Z,48.80
2023-04-03T15:29:58.151Z,49.50
2023-04-03T15:32:44.162Z,48.30
2023-04-03T15:35:30.096Z,48.30
2023-04-03T15:38:16.205Z,48.30
2023-04-03T15:41:02.242Z,47.90
2023-04-03T15:43:48.195Z,47.00
2023-04-03T15:46:34.269Z,48.20
2023-04-03T15:49:22.326Z,48.60
2023-04-03T15:52:08.351Z,50.20
2023-04-03T15:54:54.371Z,49.30
2023-04-03T16:00:32.986Z,49.40
2023-04-03T16:03:21.862Z,48.60
2023-04-03T16:06:08.207Z,49.60
2023-04-03T16:08:57.988Z,50.60
2023-04-03T16:11:44.425Z,50.80
2023-04-03T16:14:31.303Z,50.40
2023-04-03T16:17:17.434Z,50.60
2023-04-03T16:20:06.320Z,50.20
2023-04-03T16:22:52.996Z,50.40
2023-04-03T16:25:39.504Z,50.20
2023-04-03T16:28:25.745Z,50.90
2023-04-03T16:31:12.036Z,52.10
2023-04-03T16:33:58.168Z,51.10
2023-04-03T16:36:44.261Z,50.90
2023-04-03T16:39:30.368Z,51.10
2023-04-03T16:42:16.569Z,51.60
2023-04-03T16:45:04.514Z,51.60
2023-04-03T16:47:50.488Z,53.20
2023-04-03T16:50:36.574Z,53.00
2023-04-03T16:53:24.326Z,54.00
2023-04-03T16:56:10.327Z,54.20
2023-04-03T16:58:56.465Z,54.50
2023-04-03T17:01:42.856Z,55.40
2023-04-03T17:04:29.354Z,54.50
2023-04-03T17:07:15.859Z,54.30
2023-04-03T17:10:01.965Z,55.90
2023-04-03T17:12:47.756Z,55.60
2023-04-03T17:15:33.769Z,54.60
2023-04-03T17:18:19.904Z,54.60
2023-04-03T17:21:06.897Z,55.40
2023-04-03T17:24:00.042Z,55.80
2023-04-03T17:26:46.164Z,56.20
2023-04-03T17:29:32.171Z,57.20
2023-04-03T17:32:18.535Z,58.80
2023-04-03T17:35:05.386Z,57.80
2023-04-03T17:37:53.038Z,57.10
2023-04-03T17:40:39.449Z,57.40
2023-04-03T17:43:26.009Z,56.10
2023-04-03T17:46:12.581Z,57.60
2023-04-03T17:49:02.301Z,57.30
2023-04-03T17:51:48.688Z,58.10
2023-04-03T17:54:34.496Z,57.70
2023-04-03T17:57:20.670Z,57.90
2023-04-03T18:00:07.534Z,57.50
2023-04-03T18:02:59.189Z,60.20
2023-04-03T18:05:45.391Z,59.30
2023-04-03T18:08:34.599Z,59.00
2023-04-03T18:11:23.038Z,59.20
2023-04-03T18:14:10.543Z,58.90
2023-04-03T18:16:59.157Z,59.80
2023-04-03T18:19:45.483Z,59.50
2023-04-03T18:22:32.128Z,59.90
2023-04-03T18:25:19.493Z,60.30
2023-04-03T18:28:07.041Z,60.10
2023-04-03T18:30:53.254Z,60.00
2023-04-03T18:33:39.036Z,60.00
2023-04-03T18:36:26.632Z,60.20
2023-04-03T18:39:13.050Z,60.10
2023-04-03T18:42:04.452Z,60.70
2023-04-03T18:44:54.990Z,60.60
2023-04-03T18:47:41.200Z,61.20
2023-04-03T18:50:27.188Z,60.70
2023-04-03T18:53:13.150Z,60.80
2023-04-03T18:55:59.236Z,60.80
2023-04-03T18:58:45.464Z,60.70
2023-04-03T19:01:32.154Z,60.30
2023-04-03T19:04:18.718Z,61.10
2023-04-03T19:07:06.525Z,60.90
2023-04-03T19:09:53.084Z,61.20
2023-04-03T19:12:39.348Z,61.70
2023-04-03T19:15:26.251Z,61.60
2023-04-03T19:18:12.267Z,63.50
2023-04-03T19:21:00.187Z,62.20
2023-04-03T19:23:48.701Z,61.40
2023-04-03T19:26:35.165Z,61.90
2023-04-03T19:29:21.271Z,61.70
2023-04-03T19:32:08.008Z,61.90
2023-04-03T19:34:57.926Z,62.30
2023-04-03T19:37:44.240Z,61.60
2023-04-03T19:40:32.246Z,62.20
2023-04-03T19:43:18.324Z,62.30
2023-04-03T19:46:06.239Z,62.50
2023-04-03T19:48:54.480Z,63.20
2023-04-03T19:51:40.550Z,63.30
2023-04-03T19:54:26.964Z,63.70
2023-04-03T19:57:14.209Z,63.50
2023-04-03T20:00:00.283Z,63.80
2023-04-03T20:02:46.716Z,64.50
2023-04-03T20:05:33.046Z,64.10
2023-04-03T20:08:19.270Z,66.00
2023-04-03T20:11:05.982Z,65.00
2023-04-03T20:13:52.920Z,64.80
2023-04-03T20:16:39.915Z,64.60
2023-04-03T20:19:28.348Z,64.50
2023-04-03T20:22:14.324Z,64.60
2023-04-03T20:25:06.458Z,65.10
2023-04-03T20:27:54.339Z,65.60
2023-04-03T20:30:41.217Z,65.30
2023-04-03T20:33:28.172Z,66.00
2023-04-03T20:36:15.801Z,65.30
2023-04-03T20:39:02.069Z,66.10
2023-04-03T20:41:49.123Z,65.50
2023-04-03T20:44:35.475Z,66.00
2023-04-03T20:47:21.748Z,66.20
2023-04-03T20:50:08.276Z,65.40
2023-04-03T20:52:55.964Z,66.00
2023-04-03T20:55:42.223Z,66.80
2023-04-03T20:58:30.794Z,66.10
2023-04-03T21:01:22.862Z,67.00
2023-04-03T21:04:22.073Z,66.60
2023-04-03T21:07:46.655Z,66.90
2023-04-03T21:11:10.574Z,66.70
2023-04-03T21:14:35.365Z,67.20
2023-04-03T21:17:21.251Z,67.10
2023-04-03T21:20:08.095Z,67.00
2023-04-03T21:22:54.358Z,66.90
2023-04-03T21:25:40.845Z,67.10
2023-04-03T21:28:27.399Z,67.40
2023-04-03T21:31:15.058Z,66.90
2023-04-03T21:34:01.679Z,66.80
2023-04-03T21:36:50.030Z,66.80
2023-04-03T21:39:36.637Z,66.90
2023-04-03T21:42:22.808Z,66.90
2023-04-03T21:45:10.099Z,67.80
2023-04-03T21:47:56.332Z,67.30
2023-04-03T21:50:42.272Z,68.00
2023-04-03T21:53:30.940Z,67.00
2023-04-03T21:56:17.359Z,67.40
2023-04-03T21:59:04.345Z,67.40
2023-04-03T22:01:50.593Z,67.40
2023-04-03T22:04:37.714Z,68.20
2023-04-03T22:07:24.051Z,68.00
2023-04-03T22:10:10.140Z,67.60
2023-04-03T22:12:56.132Z,67.20
2023-04-03T22:15:47.385Z,68.20
2023-04-03T22:18:33.980Z,68.40
2023-04-03T22:21:21.400Z,68.30
2023-04-03T22:24:07.808Z,68.50
2023-04-03T22:26:53.690Z,69.00
2023-04-03T22:29:39.772Z,68.70
2023-04-03T22:32:26.151Z,69.00
2023-04-03T22:35:12.517Z,68.60
2023-04-03T22:37:58.748Z,68.80
2023-04-03T22:40:45.622Z,68.90
2023-04-03T22:43:33.214Z,70.00
2023-04-03T22:46:20.134Z,69.60
2023-04-03T22:49:06.368Z,69.20
2023-04-03T22:51:52.329Z,69.60
2023-04-03T22:54:38.255Z,70.10
2023-04-03T22:57:24.184Z,70.60
2023-04-03T23:00:11.213Z,70.70
2023-04-03T23:03:01.565Z,70.60
2023-04-03T23:05:47.403Z,70.70
2023-04-03T23:08:35.034Z,70.50
2023-04-03T23:11:21.567Z,71.20
2023-04-03T23:14:08.014Z,71.50
2023-04-03T23:16:54.375Z,71.90
2023-04-03T23:19:40.369Z,71.60
2023-04-03T23:22:27.320Z,71.60
2023-04-03T23:25:13.290Z,71.80
2023-04-03T23:27:59.253Z,71.80
2023-04-03T23:30:46.326Z,72.60
2023-04-03T23:33:33.267Z,72.70
2023-04-03T23:36:21.033Z,72.40
2023-04-03T23:39:07.367Z,72.50
2023-04-03T23:41:54.579Z,72.00
2023-04-03T23:44:41.209Z,72.90
2023-04-03T23:47:27.519Z,72.20
2023-04-03T23:50:13.866Z,71.80
2023-04-03T23:53:01.044Z,72.30
2023-04-03T23:55:47.106Z,71.40
2023-04-03T23:58:33.456Z,71.80
